For More Information Regarding This Station Karrinyup Station

Station Historical Data
 
Daily Summary for April 24, 2014 Units:  Metric    English   Both
« Previous Day
Next Day »
Daily Weekly Monthly Yearly Custom
  Current: High: Low: Average:
Temperature: 18.6 °C 25.8 °C 16.2 °C 20 °C
Dew Point: 8.3 °C 8.4 °C -9 °C -2.4 °C
Humidity: 51% 51% 13% 23%
Wind Speed: 5km/h 14.8km/h 0km/h 4.2km/h
Wind Gust: 5km/h 14.8km/h - -
WindNW - - SSE
Pressure: 1017.8 hPa 1019.9 hPa 1014.8 hPa -
Precipitation: 0 mm      
Historical Graphs
 
 
Tabular Data for April 24, 2014
Time Temperature Dew Point Pressure Wind Wind Speed Wind Gust Humidity Rainfall Rate (Hourly) solar Conditions
00:02 19 °C -8.2 °C 1018.8 hPa ESE 5.5 km/h 6.4 km/h 15% 0 mm VWS V14.01 W/m2
00:07 18.9 °C -8.3 °C 1018.8 hPa ESE 9.7 km/h 9.7 km/h 15% 0 mm VWS V14.01 W/m2
00:12 18.9 °C -8.3 °C 1019.9 hPa ENE 6.1 km/h 6.1 km/h 15% 0 mm VWS V14.01 W/m2
00:17 18.8 °C -8.4 °C 1019.9 hPa East 5 km/h 6.9 km/h 15% 0 mm VWS V14.01 W/m2
00:22 18.8 °C -8.4 °C 1019.9 hPa ESE 4.7 km/h 4.7 km/h 15% 0 mm VWS V14.01 W/m2
00:27 18.6 °C -8.6 °C 1019.9 hPa SSE 4.3 km/h 4.3 km/h 15% 0 mm VWS V14.01 W/m2
00:32 18.5 °C -8.6 °C 1019.9 hPa ESE 4.3 km/h 7.9 km/h 15% 0 mm VWS V14.01 W/m2
00:38 18.4 °C -8.7 °C 1019.9 hPa ESE 4.3 km/h 6.1 km/h 15% 0 mm VWS V14.01 W/m2
00:43 18.4 °C -8.7 °C 1019.9 hPa East 4.7 km/h 4.7 km/h 15% 0 mm VWS V14.01 W/m2
00:48 18.4 °C -8.7 °C 1019.9 hPa East 3.2 km/h 4 km/h 15% 0 mm VWS V14.01 W/m2
00:53 18.4 °C -8.7 °C 1019.9 hPa East 6.4 km/h 6.9 km/h 15% 0 mm VWS V14.01 W/m2
00:58 18.4 °C -8.7 °C 1019.9 hPa ENE 5.5 km/h 5.8 km/h 15% 0 mm VWS V14.01 W/m2
01:03 18.3 °C -8.8 °C 1019.9 hPa ESE 4.7 km/h 5.8 km/h 15% 0 mm VWS V14.01 W/m2
01:08 18.2 °C -8.8 °C 1019.9 hPa East 5.8 km/h 5.8 km/h 15% 0 mm VWS V14.01 W/m2
01:13 18.2 °C -8.8 °C 1019.9 hPa East 5.5 km/h 6.1 km/h 15% 0 mm VWS V14.01 W/m2
01:18 18.2 °C -8.8 °C 1019.9 hPa ENE 5 km/h 6.9 km/h 15% 0 mm VWS V14.01 W/m2
01:23 18.1 °C -8.9 °C 1019.9 hPa East 3.2 km/h 4.7 km/h 15% 0 mm VWS V14.01 W/m2
01:28 18.1 °C -8.9 °C 1019.9 hPa East 5.5 km/h 5.5 km/h 15% 0 mm VWS V14.01 W/m2
01:33 18 °C -9 °C 1019.9 hPa East 4.7 km/h 5.8 km/h 15% 0 mm VWS V14.01 W/m2
01:38 17.9 °C -8.3 °C 1019.9 hPa ESE 4 km/h 5 km/h 16% 0 mm VWS V14.01 W/m2
01:43 18 °C -9 °C 1019.9 hPa ESE 4.7 km/h 4.7 km/h 15% 0 mm VWS V14.01 W/m2
01:48 17.8 °C -8.3 °C 1019.9 hPa East 4 km/h 5.8 km/h 16% 0 mm VWS V14.01 W/m2
01:53 17.9 °C -8.3 °C 1018.8 hPa East 4.3 km/h 7.6 km/h 16% 0 mm VWS V14.01 W/m2
01:58 18 °C -9 °C 1018.8 hPa East 4.7 km/h 5.5 km/h 15% 0 mm VWS V14.01 W/m2
02:03 17.9 °C -8.3 °C 1018.8 hPa ENE 6.1 km/h 6.9 km/h 16% 0 mm VWS V14.01 W/m2
02:08 17.9 °C -8.3 °C 1018.8 hPa East 4.3 km/h 6.1 km/h 16% 0 mm VWS V14.01 W/m2
02:13 17.9 °C -8.3 °C 1018.8 hPa East 9 km/h 9 km/h 16% 0 mm VWS V14.01 W/m2
02:19 17.9 °C -8.3 °C 1018.8 hPa East 4 km/h 5.8 km/h 16% 0 mm VWS V14.01 W/m2
02:24 17.9 °C -8.3 °C 1017.8 hPa East 6.9 km/h 6.9 km/h 16% 0 mm VWS V14.01 W/m2
02:29 17.9 °C -8.3 °C 1017.8 hPa East 7.9 km/h 7.9 km/h 16% 0 mm VWS V14.01 W/m2
02:34 17.9 °C -8.3 °C 1017.8 hPa ENE 9 km/h 9 km/h 16% 0 mm VWS V14.01 W/m2
02:39 17.9 °C -8.3 °C 1017.8 hPa ESE 7.9 km/h 9.7 km/h 16% 0 mm VWS V14.01 W/m2
02:44 17.9 °C -8.3 °C 1017.8 hPa NNE 6.9 km/h 6.9 km/h 16% 0 mm VWS V14.01 W/m2
02:49 17.9 °C -8.3 °C 1017.8 hPa SSE 4.3 km/h 6.9 km/h 16% 0 mm VWS V14.01 W/m2
02:54 17.8 °C -8.3 °C 1016.8 hPa ESE 5 km/h 5.5 km/h 16% 0 mm VWS V14.01 W/m2
02:59 17.8 °C -8.3 °C 1016.8 hPa ENE 5 km/h 6.9 km/h 16% 0 mm VWS V14.01 W/m2
03:04 17.7 °C -8.4 °C 1016.8 hPa East 3.2 km/h 3.2 km/h 16% 0 mm VWS V14.01 W/m2
03:09 17.7 °C -8.4 °C 1017.8 hPa East 9.3 km/h 9.3 km/h 16% 0 mm VWS V14.01 W/m2
03:14 17.6 °C -8.5 °C 1017.8 hPa ESE 4.7 km/h 4.7 km/h 16% 0 mm VWS V14.01 W/m2
03:19 17.5 °C -8.6 °C 1017.8 hPa ESE 4.3 km/h 4.3 km/h 16% 0 mm VWS V14.01 W/m2
03:24 17.5 °C -8.6 °C 1017.8 hPa ESE 6.4 km/h 6.9 km/h 16% 0 mm VWS V14.01 W/m2
03:29 17.4 °C -8.7 °C 1017.8 hPa ENE 6.1 km/h 6.1 km/h 16% 0 mm VWS V14.01 W/m2
03:34 17.3 °C -8.8 °C 1017.8 hPa ESE 5 km/h 6.9 km/h 16% 0 mm VWS V14.01 W/m2
03:39 17.1 °C -7.4 °C 1017.8 hPa East 4.3 km/h 6.4 km/h 18% 0 mm VWS V14.01 W/m2
03:44 17 °C -7.5 °C 1017.8 hPa East 5.5 km/h 5.5 km/h 18% 0 mm VWS V14.01 W/m2
03:49 16.9 °C -6.9 °C 1017.8 hPa ESE 4.7 km/h 4.7 km/h 19% 0 mm VWS V14.01 W/m2
03:54 16.8 °C -6.9 °C 1017.8 hPa ESE 5.5 km/h 5.5 km/h 19% 0 mm VWS V14.01 W/m2
03:59 16.8 °C -6.9 °C 1017.8 hPa SE 3.2 km/h 4 km/h 19% 0 mm VWS V14.01 W/m2
04:05 16.7 °C -7.1 °C 1017.8 hPa ENE 4.3 km/h 5.8 km/h 19% 0 mm VWS V14.01 W/m2
04:10 16.6 °C -7.1 °C 1017.8 hPa ESE 3.2 km/h 6.1 km/h 19% 0 mm VWS V14.01 W/m2
04:15 16.5 °C -7.2 °C 1017.8 hPa East 4.3 km/h 4.7 km/h 19% 0 mm VWS V14.01 W/m2
04:20 16.5 °C -5.9 °C 1017.8 hPa East 4 km/h 4.7 km/h 21% 0 mm VWS V14.01 W/m2
04:25 16.5 °C -5.9 °C 1017.8 hPa ESE 7.2 km/h 7.2 km/h 21% 0 mm VWS V14.01 W/m2
04:30 16.5 °C -5.9 °C 1017.8 hPa ENE 6.1 km/h 6.1 km/h 21% 0 mm VWS V14.01 W/m2
04:35 16.6 °C -5.8 °C 1017.8 hPa ENE 5.5 km/h 8.7 km/h 21% 0 mm VWS V14.01 W/m2
04:40 16.6 °C -5.8 °C 1016.8 hPa NE 5 km/h 6.4 km/h 21% 0 mm VWS V14.01 W/m2
04:45 16.7 °C -5.7 °C 1016.8 hPa East 5.8 km/h 5.8 km/h 21% 0 mm VWS V14.01 W/m2
04:50 16.8 °C -5.6 °C 1016.8 hPa East 6.4 km/h 10.1 km/h 21% 0 mm VWS V14.01 W/m2
04:55 17 °C -5.5 °C 1016.8 hPa SE 6.9 km/h 6.9 km/h 21% 0 mm VWS V14.01 W/m2
05:00 17 °C -5.5 °C 1016.8 hPa ESE 4.3 km/h 5 km/h 21% 0 mm VWS V14.01 W/m2
05:05 17 °C -5.5 °C 1016.8 hPa East 5.8 km/h 7.6 km/h 21% 0 mm VWS V14.01 W/m2
05:10 17.1 °C -5.4 °C 1016.8 hPa ENE 4.7 km/h 7.9 km/h 21% 0 mm VWS V14.01 W/m2
05:15 17.3 °C -5.2 °C 1016.8 hPa East 6.1 km/h 9 km/h 21% 0 mm VWS V14.01 W/m2
05:20 17.3 °C -5.2 °C 1016.8 hPa ESE 9.3 km/h 9.3 km/h 21% 0 mm VWS V14.01 W/m2
05:22 17.3 °C -5.2 °C 1016.8 hPa NNE 14.8 km/h 14.8 km/h 21% 0 mm VWS V14.01 W/m2
05:27 17.4 °C -5.1 °C 1016.8 hPa ESE 5.8 km/h 10.5 km/h 21% 0 mm VWS V14.01 W/m2
05:32 17.3 °C -5.2 °C 1016.8 hPa ESE 10.5 km/h 10.5 km/h 21% 0 mm VWS V14.01 W/m2
05:37 17.2 °C -5.3 °C 1016.8 hPa NE 4.3 km/h 5.5 km/h 21% 0 mm VWS V14.01 W/m2
05:42 17.2 °C -5.3 °C 1016.8 hPa East 5 km/h 7.9 km/h 21% 0 mm VWS V14.01 W/m2
05:48 17.1 °C -4.2 °C 1016.8 hPa SE 6.1 km/h 8.7 km/h 23% 0 mm VWS V14.01 W/m2
05:53 17.1 °C -4.2 °C 1016.8 hPa ESE 6.1 km/h 6.9 km/h 23% 0 mm VWS V14.01 W/m2
05:58 17.1 °C -4.2 °C 1016.8 hPa East 11.6 km/h 11.6 km/h 23% 0 mm VWS V14.01 W/m2
06:03 17 °C -4.3 °C 1016.8 hPa ENE 6.1 km/h 6.1 km/h 23% 0 mm VWS V14.01 W/m2
06:08 16.7 °C -3.9 °C 1016.8 hPa ESE 6.1 km/h 6.4 km/h 24% 0 mm VWS V14.01 W/m2
06:13 16.5 °C -4.1 °C 1016.8 hPa ESE 5.8 km/h 9 km/h 24% 0 mm VWS V14.01 W/m2
06:18 16.3 °C -3.8 °C 1016.8 hPa ESE 13 km/h 13 km/h 25% 0 mm VWS V14.01 W/m2
06:23 16.3 °C -3.8 °C 1016.8 hPa NNE 11.6 km/h 11.6 km/h 25% 0 mm VWS V14.01 W/m2
06:28 16.3 °C -3.8 °C 1016.8 hPa ENE 6.4 km/h 9 km/h 25% 0 mm VWS V14.01 W/m2
06:33 16.3 °C -3.8 °C 1016.8 hPa ENE 6.4 km/h 6.4 km/h 25% 0 mm VWS V14.01 W/m2
06:38 16.3 °C -3.8 °C 1016.8 hPa ESE 9.7 km/h 10.1 km/h 25% 0 mm VWS V14.01 W/m2
06:43 16.4 °C -3.7 °C 1016.8 hPa ENE 9 km/h 11.9 km/h 25% 0 mm VWS V14.01 W/m2
06:48 16.3 °C -3.8 °C 1016.8 hPa ENE 4 km/h 7.9 km/h 25% 0 mm VWS V14.01 W/m2
06:53 16.3 °C -3.8 °C 1016.8 hPa ENE 3.2 km/h 7.9 km/h 25% 0 mm VWS V14.01 W/m2
06:58 16.3 °C -3.8 °C 1016.8 hPa ESE 4.3 km/h 4.3 km/h 25% 0 mm VWS V14.01 W/m2
07:03 16.2 °C -3.3 °C 1016.8 hPa NE 4 km/h 4.3 km/h 26% 0 mm VWS V14.01 W/m2
07:08 16.2 °C -3.3 °C 1016.8 hPa East 4.7 km/h 8.7 km/h 26% 0 mm VWS V14.01 W/m2
07:13 16.3 °C -3.2 °C 1016.8 hPa East 4 km/h 4.7 km/h 26% 0 mm VWS V14.01 W/m2
07:18 16.3 °C -3.2 °C 1016.8 hPa ENE 4.3 km/h 4.3 km/h 26% 0 mm VWS V14.01 W/m2
07:23 16.3 °C -3.2 °C 1016.8 hPa ENE 5.8 km/h 5.8 km/h 26% 0 mm VWS V14.01 W/m2
07:28 16.4 °C -3.2 °C 1016.8 hPa East 4.7 km/h 5 km/h 26% 0 mm VWS V14.01 W/m2
07:34 16.5 °C -3.1 °C 1016.8 hPa ENE 4.7 km/h 4.7 km/h 26% 0 mm VWS V14.01 W/m2
07:35 16.5 °C -3.1 °C 1016.8 hPa ESE 4.3 km/h 4.3 km/h 26% 0 mm VWS V14.01 W/m2
07:40 16.7 °C -2.9 °C 1016.8 hPa East 2.6 km/h 4.7 km/h 26% 0 mm VWS V14.01 W/m2
07:45 17 °C -2.6 °C 1016.8 hPa East 2.1 km/h 4.3 km/h 26% 0 mm VWS V14.01 W/m2
07:50 17.2 °C -2.4 °C 1016.8 hPa East 5 km/h 5 km/h 26% 0 mm VWS V14.01 W/m2
07:55 17.4 °C -2.8 °C 1016.8 hPa East 3.5 km/h 5.5 km/h 25% 0 mm VWS V14.01 W/m2
08:00 18 °C -2.3 °C 1016.8 hPa ENE 4 km/h 5.5 km/h 25% 0 mm VWS V14.01 W/m2
08:05 18.6 °C -2.3 °C 1016.8 hPa ENE 4.3 km/h 5.5 km/h 24% 0 mm VWS V14.01 W/m2
08:10 19.3 °C -2.3 °C 1017.8 hPa ENE 4.7 km/h 10.1 km/h 23% 0 mm VWS V14.01 W/m2
08:15 19.8 °C -2.5 °C 1017.8 hPa East 6.9 km/h 6.9 km/h 22% 0 mm VWS V14.01 W/m2
08:20 20.3 °C -3.4 °C 1017.8 hPa East 4 km/h 7.9 km/h 20% 0 mm VWS V14.01 W/m2
08:25 20.7 °C -5.2 °C 1016.8 hPa ENE 7.9 km/h 8.7 km/h 17% 0 mm VWS V14.01 W/m2
08:30 20.3 °C -5.6 °C 1016.8 hPa East 5.8 km/h 5.8 km/h 17% 0 mm VWS V14.01 W/m2
08:35 20 °C -5.8 °C 1016.8 hPa East 2.6 km/h 5 km/h 17% 0 mm VWS V14.01 W/m2
08:40 20.1 °C -3.6 °C 1016.8 hPa ESE 7.6 km/h 7.6 km/h 20% 0 mm VWS V14.01 W/m2
08:45 20.5 °C -5.4 °C 1016.8 hPa ENE 4.3 km/h 6.1 km/h 17% 0 mm VWS V14.01 W/m2
08:50 21 °C -4.9 °C 1016.8 hPa ENE 5 km/h 5 km/h 17% 0 mm VWS V14.01 W/m2
08:55 21.5 °C -4.6 °C 1016.8 hPa ENE 4 km/h 4 km/h 17% 0 mm VWS V14.01 W/m2
09:00 21.6 °C -4.5 °C 1016.8 hPa East 3.2 km/h 4.7 km/h 17% 0 mm VWS V14.01 W/m2
09:05 21.8 °C -4.3 °C 1016.8 hPa SSE 2.6 km/h 3.2 km/h 17% 0 mm VWS V14.01 W/m2
09:10 22.3 °C -4.7 °C 1016.8 hPa East 4.3 km/h 4.7 km/h 16% 0 mm VWS V14.01 W/m2
09:16 22.1 °C -4.9 °C 1016.8 hPa ENE 4.7 km/h 5 km/h 16% 0 mm VWS V14.01 W/m2
09:21 22.2 °C -4.8 °C 1016.8 hPa ENE 4 km/h 4 km/h 16% 0 mm VWS V14.01 W/m2
09:26 22.1 °C -4.9 °C 1017.8 hPa East 5.8 km/h 5.8 km/h 16% 0 mm VWS V14.01 W/m2
09:31 21.9 °C -4.2 °C 1017.8 hPa ENE 2.1 km/h 5.8 km/h 17% 0 mm VWS V14.01 W/m2
09:36 22 °C -4.9 °C 1017.8 hPa ESE 1.4 km/h 3.2 km/h 16% 0 mm VWS V14.01 W/m2
09:41 22.1 °C -4.9 °C 1016.8 hPa East 3.5 km/h 4.3 km/h 16% 0 mm VWS V14.01 W/m2
09:46 22.2 °C -4.8 °C 1016.8 hPa ESE 4.7 km/h 5 km/h 16% 0 mm VWS V14.01 W/m2
09:51 22.6 °C -4.5 °C 1016.8 hPa South 2.6 km/h 2.6 km/h 16% 0 mm VWS V14.01 W/m2
09:56 22.3 °C -4.7 °C 1016.8 hPa ENE 6.4 km/h 6.4 km/h 16% 0 mm VWS V14.01 W/m2
10:01 22 °C -4.9 °C 1016.8 hPa SSE 1.4 km/h 3.2 km/h 16% 0 mm VWS V14.01 W/m2
10:06 22 °C -4.9 °C 1016.8 hPa ENE 2.6 km/h 3.2 km/h 16% 0 mm VWS V14.01 W/m2
10:11 22.1 °C -4.9 °C 1016.8 hPa South 2.1 km/h 2.6 km/h 16% 0 mm VWS V14.01 W/m2
10:16 22.5 °C -4.6 °C 1016.8 hPa Calm   1.8 km/h 16% 0 mm VWS V14.01 W/m2
10:21 22.6 °C -4.5 °C 1016.8 hPa ENE 5 km/h 5 km/h 16% 0 mm VWS V14.01 W/m2
10:26 22.9 °C -4.2 °C 1016.8 hPa SSW 3.2 km/h 3.2 km/h 16% 0 mm VWS V14.01 W/m2
10:31 23 °C -4.2 °C 1016.8 hPa Calm   2.6 km/h 16% 0 mm VWS V14.01 W/m2
10:36 23.1 °C -4.1 °C 1016.8 hPa Calm   3.2 km/h 16% 0 mm VWS V14.01 W/m2
10:41 23.5 °C -3.8 °C 1016.8 hPa SSE 1.8 km/h 4.7 km/h 16% 0 mm VWS V14.01 W/m2
10:47 24 °C -6.1 °C 1016.8 hPa NE 1.4 km/h 3.5 km/h 13% 0 mm VWS V14.01 W/m2
10:52 24.3 °C -5.8 °C 1016.8 hPa SSE 5 km/h 5 km/h 13% 0 mm VWS V14.01 W/m2
10:57 25.1 °C -5.2 °C 1015.8 hPa ENE 3.2 km/h 5 km/h 13% 0 mm VWS V14.01 W/m2
11:02 25 °C -5.3 °C 1015.8 hPa ENE 3.2 km/h 4.3 km/h 13% 0 mm VWS V14.01 W/m2
11:07 25 °C -5.3 °C 1015.8 hPa SSE 3.5 km/h 4.7 km/h 13% 0 mm VWS V14.01 W/m2
11:12 24.9 °C -5.4 °C 1015.8 hPa Calm   3.5 km/h 13% 0 mm VWS V14.01 W/m2
11:17 24.9 °C -5.4 °C 1015.8 hPa SSE 4 km/h 4 km/h 13% 0 mm VWS V14.01 W/m2
11:22 24.9 °C -5.4 °C 1015.8 hPa NE 5.5 km/h 5.5 km/h 13% 0 mm VWS V14.01 W/m2
11:27 24.5 °C -5.7 °C 1015.8 hPa ESE 1.4 km/h 1.4 km/h 13% 0 mm VWS V14.01 W/m2
11:32 24.1 °C -6 °C 1015.8 hPa SSW 2.6 km/h 3.2 km/h 13% 0 mm VWS V14.01 W/m2
11:37 24.1 °C -6 °C 1015.8 hPa South 3.5 km/h 3.5 km/h 13% 0 mm VWS V14.01 W/m2
11:42 24.3 °C -5.8 °C 1014.8 hPa WSW 4 km/h 4 km/h 13% 0 mm VWS V14.01 W/m2
11:47 25.1 °C -5.2 °C 1014.8 hPa SSW 1.4 km/h 1.8 km/h 13% 0 mm VWS V14.01 W/m2
11:52 25.8 °C -4.7 °C 1014.8 hPa SSW 2.1 km/h 3.5 km/h 13% 0 mm VWS V14.01 W/m2
11:57 25.7 °C -4.8 °C 1015.8 hPa SW 3.5 km/h 4 km/h 13% 0 mm VWS V14.01 W/m2
12:01 25.7 °C -4.8 °C 1015.8 hPa SSW 2.6 km/h 4.3 km/h 13% 0 mm VWS V14.01 W/m2
12:02 25.8 °C -4.7 °C 1015.8 hPa WSW 2.6 km/h 4 km/h 13% 0 mm VWS V14.01 W/m2
12:05 25.8 °C -4.7 °C 1015.8 hPa SSW 4 km/h 5 km/h 13% 0 mm VWS V14.01 W/m2
12:07 25.6 °C -4.8 °C 1015.8 hPa SSW 4.7 km/h 5.5 km/h 13% 0 mm VWS V14.01 W/m2
12:12 25.4 °C -5 °C 1015.8 hPa WNW 2.6 km/h 5 km/h 13% 0 mm VWS V14.01 W/m2
12:18 24.7 °C -5.6 °C 1015.8 hPa WNW 4.7 km/h 6.9 km/h 13% 0 mm VWS V14.01 W/m2
12:23 24.1 °C -6 °C 1015.8 hPa WSW 2.6 km/h 7.6 km/h 13% 0 mm VWS V14.01 W/m2
12:28 23.9 °C -3.4 °C 1015.8 hPa SW 4 km/h 5.5 km/h 16% 0 mm VWS V14.01 W/m2
12:33 23.6 °C -3.7 °C 1015.8 hPa South 3.5 km/h 5.8 km/h 16% 0 mm VWS V14.01 W/m2
12:38 23.4 °C -3.8 °C 1015.8 hPa WSW 4 km/h 5.5 km/h 16% 0 mm VWS V14.01 W/m2
12:43 23.1 °C -4.1 °C 1015.8 hPa WNW 4.7 km/h 5.8 km/h 16% 0 mm VWS V14.01 W/m2
12:48 22.7 °C -4.4 °C 1015.8 hPa WNW 3.5 km/h 9 km/h 16% 0 mm VWS V14.01 W/m2
12:53 22.5 °C -4.6 °C 1015.8 hPa SSW 6.4 km/h 6.4 km/h 16% 0 mm VWS V14.01 W/m2
12:58 22.4 °C -1 °C 1014.8 hPa NNW 4 km/h 9.3 km/h 21% 0 mm VWS V14.01 W/m2
13:03 22.4 °C -1 °C 1014.8 hPa SSW 5 km/h 5.8 km/h 21% 0 mm VWS V14.01 W/m2
13:08 22.4 °C -1 °C 1014.8 hPa SSE 4.3 km/h 8.7 km/h 21% 0 mm VWS V14.01 W/m2
13:13 22.3 °C -0.4 °C 1015.8 hPa SSW 5.8 km/h 8.7 km/h 22% 0 mm VWS V14.01 W/m2
13:18 22.5 °C -0.9 °C 1015.8 hPa West 2.6 km/h 2.6 km/h 21% 0 mm VWS V14.01 W/m2
13:23 22.8 °C 0 °C 1015.8 hPa West 1.8 km/h 1.8 km/h 22% 0 mm VWS V14.01 W/m2
13:28 23 °C -0.5 °C 1015.8 hPa WSW 2.6 km/h 5 km/h 21% 0 mm VWS V14.01 W/m2
13:33 22.8 °C -0.7 °C 1015.8 hPa SW 8.7 km/h 8.7 km/h 21% 0 mm VWS V14.01 W/m2
13:38 22.7 °C -0.7 °C 1014.8 hPa WSW 3.2 km/h 5.5 km/h 21% 0 mm VWS V14.01 W/m2
13:43 22.6 °C -0.8 °C 1014.8 hPa SW 3.5 km/h 5.5 km/h 21% 0 mm VWS V14.01 W/m2
13:48 22.5 °C -0.9 °C 1014.8 hPa East 1.8 km/h 7.9 km/h 21% 0 mm VWS V14.01 W/m2
13:53 22.3 °C -0.4 °C 1014.8 hPa NNW 4.7 km/h 4.7 km/h 22% 0 mm VWS V14.01 W/m2
13:59 22.1 °C -0.6 °C 1014.8 hPa SSW 4 km/h 5 km/h 22% 0 mm VWS V14.01 W/m2
14:04 22.2 °C -0.5 °C 1014.8 hPa WNW 4 km/h 5 km/h 22% 0 mm VWS V14.01 W/m2
14:09 22.2 °C -0.5 °C 1014.8 hPa WNW 4 km/h 5.5 km/h 22% 0 mm VWS V14.01 W/m2
14:14 22.1 °C -0.6 °C 1014.8 hPa SSW 3.5 km/h 3.5 km/h 22% 0 mm VWS V14.01 W/m2
14:19 22 °C -0.7 °C 1014.8 hPa WSW 4.7 km/h 5.8 km/h 22% 0 mm VWS V14.01 W/m2
14:24 22 °C -0.7 °C 1015.8 hPa SSW 4.7 km/h 4.7 km/h 22% 0 mm VWS V14.01 W/m2
14:29 22.1 °C -0.6 °C 1015.8 hPa WSW 5.5 km/h 5.5 km/h 22% 0 mm VWS V14.01 W/m2
14:34 22.2 °C -0.5 °C 1015.8 hPa SW 4.3 km/h 4.3 km/h 22% 0 mm VWS V14.01 W/m2
14:39 22.3 °C -0.4 °C 1015.8 hPa SSW 1.4 km/h 2.1 km/h 22% 0 mm VWS V14.01 W/m2
14:44 22.3 °C -0.4 °C 1015.8 hPa West 3.2 km/h 5 km/h 22% 0 mm VWS V14.01 W/m2
14:49 22.2 °C -0.5 °C 1015.8 hPa Calm   1.4 km/h 22% 0 mm VWS V14.01 W/m2
14:54 22.2 °C -0.5 °C 1014.8 hPa WSW 3.2 km/h 4 km/h 22% 0 mm VWS V14.01 W/m2
14:59 22.3 °C -0.4 °C 1014.8 hPa WNW 3.2 km/h 4 km/h 22% 0 mm VWS V14.01 W/m2
15:04 22.2 °C -0.5 °C 1014.8 hPa SSW 3.2 km/h 4 km/h 22% 0 mm VWS V14.01 W/m2
15:09 22.2 °C -0.5 °C 1014.8 hPa SW 1.8 km/h 2.6 km/h 22% 0 mm VWS V14.01 W/m2
15:14 22.3 °C -0.4 °C 1014.8 hPa WSW 3.5 km/h 4.3 km/h 22% 0 mm VWS V14.01 W/m2
15:19 22.4 °C -0.3 °C 1014.8 hPa WSW 2.6 km/h 4 km/h 22% 0 mm VWS V14.01 W/m2
15:25 22.4 °C -0.3 °C 1014.8 hPa WNW 3.2 km/h 3.2 km/h 22% 0 mm VWS V14.01 W/m2
15:30 22.2 °C -0.5 °C 1014.8 hPa WSW 5 km/h 6.4 km/h 22% 0 mm VWS V14.01 W/m2
15:35 22.1 °C -0.6 °C 1014.8 hPa WSW 3.2 km/h 3.2 km/h 22% 0 mm VWS V14.01 W/m2
15:40 22 °C -0.7 °C 1015.8 hPa SSW 2.6 km/h 4 km/h 22% 0 mm VWS V14.01 W/m2
15:45 21.9 °C -0.2 °C 1015.8 hPa SW 5.5 km/h 8.7 km/h 23% 0 mm VWS V14.01 W/m2
15:50 21.8 °C -0.2 °C 1015.8 hPa SW 3.2 km/h 3.2 km/h 23% 0 mm VWS V14.01 W/m2
15:55 21.8 °C -0.2 °C 1015.8 hPa WNW 4 km/h 4 km/h 23% 0 mm VWS V14.01 W/m2
16:00 21.8 °C 0.3 °C 1015.8 hPa WSW 4 km/h 4 km/h 24% 0 mm VWS V14.01 W/m2
16:05 21.8 °C 0.3 °C 1015.8 hPa WSW 4 km/h 4 km/h 24% 0 mm VWS V14.01 W/m2
16:10 21.6 °C 0.2 °C 1015.8 hPa WSW 6.1 km/h 6.1 km/h 24% 0 mm VWS V14.01 W/m2
16:15 21.5 °C 0.1 °C 1015.8 hPa WSW 1.8 km/h 3.5 km/h 24% 0 mm VWS V14.01 W/m2
16:20 21.5 °C 0.1 °C 1015.8 hPa West 3.5 km/h 3.5 km/h 24% 0 mm VWS V14.01 W/m2
16:25 21.4 °C 0.6 °C 1015.8 hPa WNW 4.7 km/h 4.7 km/h 25% 0 mm VWS V14.01 W/m2
16:30 21.4 °C 0.6 °C 1015.8 hPa SSW 2.1 km/h 3.2 km/h 25% 0 mm VWS V14.01 W/m2
16:35 21.3 °C 0.5 °C 1015.8 hPa SSW 4 km/h 4 km/h 25% 0 mm VWS V14.01 W/m2
16:40 21.2 °C 0.9 °C 1015.8 hPa SE 7.6 km/h 7.6 km/h 26% 0 mm VWS V14.01 W/m2
16:45 21 °C 1.3 °C 1015.8 hPa SSW 4.7 km/h 5.5 km/h 27% 0 mm VWS V14.01 W/m2
16:50 21 °C 1.3 °C 1015.8 hPa SSW 5.5 km/h 5.5 km/h 27% 0 mm VWS V14.01 W/m2
16:56 20.8 °C 2.6 °C 1014.8 hPa WSW 5.8 km/h 5.8 km/h 30% 0 mm VWS V14.01 W/m2
17:01 20.8 °C 3.5 °C 1014.8 hPa WSW 4.7 km/h 6.9 km/h 32% 0 mm VWS V14.01 W/m2
17:06 20.7 °C 3.4 °C 1014.8 hPa WSW 4 km/h 5 km/h 32% 0 mm VWS V14.01 W/m2
17:11 20.7 °C 3.4 °C 1015.8 hPa WSW 4 km/h 5.5 km/h 32% 0 mm VWS V14.01 W/m2
17:16 20.6 °C 3.8 °C 1015.8 hPa WSW 4.3 km/h 6.1 km/h 33% 0 mm VWS V14.01 W/m2
17:21 20.5 °C 3.7 °C 1015.8 hPa WNW 5 km/h 5 km/h 33% 0 mm VWS V14.01 W/m2
17:26 20.5 °C 3.7 °C 1014.8 hPa WSW 4.3 km/h 4.3 km/h 33% 0 mm VWS V14.01 W/m2
17:31 20.4 °C 3.6 °C 1014.8 hPa West 5 km/h 5 km/h 33% 0 mm VWS V14.01 W/m2
17:36 20.3 °C 3.5 °C 1014.8 hPa WSW 4.7 km/h 4.7 km/h 33% 0 mm VWS V14.01 W/m2
17:41 20.3 °C 3.5 °C 1015.8 hPa SW 4.3 km/h 4.7 km/h 33% 0 mm VWS V14.01 W/m2
17:46 20.2 °C 3.4 °C 1015.8 hPa WSW 3.2 km/h 3.5 km/h 33% 0 mm VWS V14.01 W/m2
17:51 20.2 °C 3.4 °C 1015.8 hPa WNW 5.8 km/h 6.9 km/h 33% 0 mm VWS V14.01 W/m2
17:56 20.1 °C 2.9 °C 1015.8 hPa WNW 4.3 km/h 4.3 km/h 32% 0 mm VWS V14.01 W/m2
18:01 20.1 °C 2.9 °C 1015.8 hPa WSW 1.8 km/h 2.1 km/h 32% 0 mm VWS V14.01 W/m2
18:06 20 °C 2.8 °C 1015.8 hPa WSW 3.2 km/h 3.2 km/h 32% 0 mm VWS V14.01 W/m2
18:11 20 °C 2.8 °C 1015.8 hPa WNW 2.6 km/h 2.6 km/h 32% 0 mm VWS V14.01 W/m2
18:16 20 °C 2.8 °C 1015.8 hPa WSW 5.5 km/h 5.5 km/h 32% 0 mm VWS V14.01 W/m2
18:21 20 °C 2.8 °C 1015.8 hPa West 4.7 km/h 5.5 km/h 32% 0 mm VWS V14.01 W/m2
18:26 20 °C 2.8 °C 1016.8 hPa WSW 4 km/h 4 km/h 32% 0 mm VWS V14.01 W/m2
18:32 20 °C 2.8 °C 1016.8 hPa WSW 3.5 km/h 3.5 km/h 32% 0 mm VWS V14.01 W/m2
18:37 20 °C 3.2 °C 1016.8 hPa WSW 4.3 km/h 4.7 km/h 33% 0 mm VWS V14.01 W/m2
18:42 20 °C 3.2 °C 1016.8 hPa WNW 4.3 km/h 4.3 km/h 33% 0 mm VWS V14.01 W/m2
18:47 19.9 °C 3.2 °C 1016.8 hPa WSW 4 km/h 5.5 km/h 33% 0 mm VWS V14.01 W/m2
18:52 19.9 °C 3.2 °C 1016.8 hPa WNW 2.6 km/h 4.3 km/h 33% 0 mm VWS V14.01 W/m2
18:57 19.9 °C 3.6 °C 1016.8 hPa WNW 4 km/h 5 km/h 34% 0 mm VWS V14.01 W/m2
19:02 19.9 °C 3.2 °C 1016.8 hPa SSW 2.6 km/h 2.6 km/h 33% 0 mm VWS V14.01 W/m2
19:07 19.9 °C 3.6 °C 1016.8 hPa WNW 2.6 km/h 3.2 km/h 34% 0 mm VWS V14.01 W/m2
19:12 19.9 °C 3.6 °C 1017.8 hPa WSW 5 km/h 5 km/h 34% 0 mm VWS V14.01 W/m2
19:17 19.9 °C 3.6 °C 1017.8 hPa SSW 4.3 km/h 4.3 km/h 34% 0 mm VWS V14.01 W/m2
19:22 19.9 °C 3.6 °C 1017.8 hPa West 3.2 km/h 4.3 km/h 34% 0 mm VWS V14.01 W/m2
19:27 19.8 °C 3.9 °C 1017.8 hPa WSW 3.2 km/h 3.2 km/h 35% 0 mm VWS V14.01 W/m2
19:32 19.8 °C 3.9 °C 1017.8 hPa South 3.5 km/h 4.7 km/h 35% 0 mm VWS V14.01 W/m2
19:37 19.6 °C 3.7 °C 1017.8 hPa SSW 3.5 km/h 4.3 km/h 35% 0 mm VWS V14.01 W/m2
19:42 19.6 °C 3.7 °C 1017.8 hPa SE 4 km/h 5.5 km/h 35% 0 mm VWS V14.01 W/m2
19:47 19.6 °C 4.1 °C 1017.8 hPa WSW 2.1 km/h 2.6 km/h 36% 0 mm VWS V14.01 W/m2
19:52 19.6 °C 4.1 °C 1017.8 hPa WSW 6.1 km/h 6.1 km/h 36% 0 mm VWS V14.01 W/m2
19:57 19.6 °C 4.1 °C 1017.8 hPa WSW 1.8 km/h 3.5 km/h 36% 0 mm VWS V14.01 W/m2
20:02 19.7 °C 4.2 °C 1017.8 hPa SSW 1.8 km/h 2.6 km/h 36% 0 mm VWS V14.01 W/m2
20:07 19.6 °C 4.1 °C 1017.8 hPa Calm   3.2 km/h 36% 0 mm VWS V14.01 W/m2
20:12 19.5 °C 4.1 °C 1017.8 hPa Calm     36% 0 mm VWS V14.01 W/m2
20:18 19.6 °C 4.1 °C 1017.8 hPa ENE 4.7 km/h 4.7 km/h 36% 0 mm VWS V14.01 W/m2
20:23 19.5 °C 4.4 °C 1017.8 hPa ENE 2.6 km/h 3.2 km/h 37% 0 mm VWS V14.01 W/m2
20:28 19.4 °C 4.3 °C 1017.8 hPa Calm   2.6 km/h 37% 0 mm VWS V14.01 W/m2
20:33 19.2 °C 4.2 °C 1017.8 hPa Calm   2.1 km/h 37% 0 mm VWS V14.01 W/m2
20:38 19.1 °C 4.1 °C 1017.8 hPa Calm     37% 0 mm VWS V14.01 W/m2
20:43 19 °C 4 °C 1017.8 hPa Calm     37% 0 mm VWS V14.01 W/m2
20:48 18.9 °C 4.3 °C 1017.8 hPa Calm     38% 0 mm VWS V14.01 W/m2
20:53 18.9 °C 4.7 °C 1017.8 hPa WNW 2.1 km/h 2.1 km/h 39% 0 mm VWS V14.01 W/m2
20:58 19 °C 5.1 °C 1017.8 hPa West 2.6 km/h 2.6 km/h 40% 0 mm VWS V14.01 W/m2
21:03 18.9 °C 5.7 °C 1017.8 hPa NNW 4.3 km/h 4.3 km/h 42% 0 mm VWS V14.01 W/m2
21:08 18.8 °C 5.9 °C 1017.8 hPa NNW 1.4 km/h 1.8 km/h 43% 0 mm VWS V14.01 W/m2
21:13 18.9 °C 6.4 °C 1017.8 hPa NNW 4 km/h 4 km/h 44% 0 mm VWS V14.01 W/m2
21:18 18.9 °C 7.1 °C 1017.8 hPa Calm   3.5 km/h 46% 0 mm VWS V14.01 W/m2
21:23 18.9 °C 7.3 °C 1018.8 hPa NNW 1.8 km/h 3.5 km/h 47% 0 mm VWS V14.01 W/m2
21:28 18.8 °C 7.3 °C 1018.8 hPa NNW 1.4 km/h 4 km/h 47% 0 mm VWS V14.01 W/m2
21:33 18.8 °C 7.3 °C 1018.8 hPa NNW 1.4 km/h 1.8 km/h 47% 0 mm VWS V14.01 W/m2
21:38 18.8 °C 7.3 °C 1017.8 hPa NNW 3.5 km/h 3.5 km/h 47% 0 mm VWS V14.01 W/m2
21:43 18.7 °C 7.5 °C 1017.8 hPa NNW 3.2 km/h 5 km/h 48% 0 mm VWS V14.01 W/m2
21:49 18.7 °C 8.1 °C 1017.8 hPa WNW 4 km/h 5 km/h 50% 0 mm VWS V14.01 W/m2
21:54 18.7 °C 8.4 °C 1017.8 hPa Calm   5.5 km/h 51% 0 mm VWS V14.01 W/m2
21:59 18.6 °C 8.3 °C 1017.8 hPa Calm   4 km/h 51% 0 mm VWS V14.01 W/m2
22:04 18.6 °C 8.3 °C 1017.8 hPa NW 5 km/h 5 km/h 51% 0 mm VWS V14.01 W/m2
Compliments of Weather Underground